createdAt,value
2022-08-18T00:00:49.985Z,70.15
2022-08-18T00:03:57.286Z,71.58
2022-08-18T00:07:10.809Z,70.67
2022-08-18T00:10:18.185Z,70.29
2022-08-18T00:13:20.352Z,68.67
2022-08-18T00:16:21.834Z,68.80
2022-08-18T00:19:45.491Z,68.69
2022-08-18T00:22:46.584Z,69.76
2022-08-18T00:25:50.187Z,69.25
2022-08-18T00:28:51.605Z,69.02
2022-08-18T00:31:53.295Z,67.94
2022-08-18T00:34:54.978Z,67.87
2022-08-18T00:37:58.466Z,67.81
2022-08-18T00:40:59.937Z,67.84
2022-08-18T00:44:04.463Z,68.40
2022-08-18T00:47:06.030Z,68.44
2022-08-18T00:50:08.036Z,68.71
2022-08-18T00:53:29.381Z,69.15
2022-08-18T00:56:35.568Z,69.07
2022-08-18T00:59:42.857Z,68.99
2022-08-18T01:02:50.512Z,69.79
2022-08-18T01:06:03.416Z,69.92
2022-08-18T01:09:05.867Z,70.37
2022-08-18T01:12:44.313Z,70.70
2022-08-18T01:15:31.561Z,71.09
2022-08-18T01:18:51.591Z,70.63
2022-08-18T01:22:00.868Z,69.86
2022-08-18T01:25:26.302Z,70.22
2022-08-18T01:28:29.342Z,70.68
2022-08-18T01:31:37.545Z,70.23
2022-08-18T01:34:39.100Z,70.75
2022-08-18T01:37:41.309Z,71.01
2022-08-18T01:41:06.262Z,70.14
2022-08-18T01:44:05.145Z,70.03
2022-08-18T01:47:06.593Z,69.64
2022-08-18T01:50:11.086Z,70.26
2022-08-18T01:53:12.554Z,70.44
2022-08-18T01:56:17.551Z,70.85
2022-08-18T01:59:19.064Z,70.58
2022-08-18T02:02:26.029Z,70.34
2022-08-18T02:05:33.531Z,70.56
2022-08-18T02:08:35.483Z,70.51
2022-08-18T02:11:36.911Z,70.79
2022-08-18T02:14:40.434Z,70.48
2022-08-18T02:17:44.637Z,70.76
2022-08-18T02:20:47.897Z,69.90
2022-08-18T02:23:53.242Z,70.17
2022-08-18T02:26:55.537Z,69.95
2022-08-18T02:29:59.813Z,69.16
2022-08-18T02:33:01.725Z,69.41
2022-08-18T02:36:04.218Z,69.32
2022-08-18T02:39:05.628Z,69.84
2022-08-18T02:42:07.702Z,69.47
2022-08-18T02:45:09.739Z,69.61
2022-08-18T02:48:11.226Z,69.90
2022-08-18T02:51:16.786Z,69.71
2022-08-18T02:54:20.530Z,69.62
2022-08-18T02:57:22.478Z,70.20
2022-08-18T03:00:23.900Z,70.36
2022-08-18T03:03:25.354Z,70.90
2022-08-18T03:06:28.449Z,70.91
2022-08-18T03:09:31.804Z,70.98
2022-08-18T03:12:33.213Z,70.45
2022-08-18T03:15:34.695Z,70.72
2022-08-18T03:18:36.716Z,71.89
2022-08-18T03:21:38.171Z,73.09
2022-08-18T03:24:39.747Z,75.28
2022-08-18T03:27:41.154Z,76.70
2022-08-18T03:30:43.419Z,75.90
2022-08-18T03:33:46.455Z,76.71
2022-08-18T03:36:50.486Z,78.16
2022-08-18T03:39:52.753Z,77.51
2022-08-18T03:42:54.227Z,77.45
2022-08-18T03:45:55.629Z,78.62
2022-08-18T03:48:58.903Z,78.17
2022-08-18T03:52:00.770Z,77.84
2022-08-18T03:55:02.859Z,79.95
2022-08-18T03:58:04.514Z,80.38
2022-08-18T04:01:05.959Z,82.34
2022-08-18T04:04:15.055Z,83.18
2022-08-18T04:07:17.519Z,83.77
2022-08-18T04:10:19.814Z,84.72
2022-08-18T04:13:21.312Z,82.22
2022-08-18T04:16:22.731Z,82.28
2022-08-18T04:19:27.224Z,81.92
2022-08-18T04:22:29.380Z,81.97
2022-08-18T04:25:33.203Z,82.23
2022-08-18T04:28:35.287Z,84.80
2022-08-18T04:31:37.764Z,84.12
2022-08-18T04:34:39.338Z,85.08
2022-08-18T04:37:41.951Z,86.04
2022-08-18T04:40:43.475Z,86.40
2022-08-18T04:43:45.164Z,87.85
2022-08-18T04:46:49.524Z,86.95
2022-08-18T04:49:50.933Z,86.59
2022-08-18T04:53:11.093Z,86.53
2022-08-18T04:56:27.881Z,86.12
2022-08-18T04:59:29.293Z,87.82
2022-08-18T05:02:33.069Z,88.76
2022-08-18T05:05:35.244Z,88.30
2022-08-18T05:08:36.644Z,89.12
2022-08-18T05:11:38.926Z,89.91
2022-08-18T05:14:41.374Z,88.61
2022-08-18T05:17:43.222Z,89.75
2022-08-18T05:20:48.362Z,91.41
2022-08-18T05:23:50.656Z,90.01
2022-08-18T05:26:53.486Z,90.28
2022-08-18T05:29:55.373Z,91.73
2022-08-18T05:32:59.010Z,93.68
2022-08-18T05:36:04.131Z,91.75
2022-08-18T05:39:11.560Z,92.00
2022-08-18T05:42:17.637Z,90.40
2022-08-18T05:45:20.323Z,90.31
2022-08-18T05:48:21.792Z,89.52
2022-08-18T05:51:29.260Z,89.65
2022-08-18T05:55:07.668Z,91.95
2022-08-18T05:58:17.948Z,92.53
2022-08-18T06:01:23.881Z,91.72
2022-08-18T06:04:34.367Z,93.16
2022-08-18T06:07:46.893Z,92.72
2022-08-18T06:10:50.654Z,92.27
2022-08-18T06:13:59.436Z,93.51
2022-08-18T06:17:24.838Z,94.45
2022-08-18T06:20:44.436Z,94.94
2022-08-18T06:24:07.522Z,95.33
2022-08-18T06:27:23.042Z,92.19
2022-08-18T06:30:39.602Z,93.53
2022-08-18T06:33:56.201Z,93.59
2022-08-18T06:37:11.045Z,95.43
2022-08-18T06:40:12.495Z,93.49
2022-08-18T06:43:16.972Z,93.71
2022-08-18T06:46:24.084Z,94.60
2022-08-18T06:49:36.201Z,93.36
2022-08-18T06:52:51.403Z,92.70
2022-08-18T06:55:52.959Z,93.75
2022-08-18T06:58:55.473Z,92.67
2022-08-18T07:02:24.670Z,93.85
2022-08-18T07:05:28.990Z,93.63
2022-08-18T07:08:37.017Z,93.56
2022-08-18T07:11:43.162Z,93.75
2022-08-18T07:14:48.412Z,95.33
2022-08-18T07:17:50.256Z,96.22
2022-08-18T07:20:56.234Z,97.75
2022-08-18T07:24:25.774Z,96.18
2022-08-18T07:27:49.749Z,94.75
2022-08-18T07:31:15.628Z,93.28
2022-08-18T07:34:33.306Z,94.94
2022-08-18T07:37:54.933Z,96.40
2022-08-18T07:41:02.960Z,95.40
2022-08-18T07:44:13.808Z,95.61
2022-08-18T07:47:26.327Z,94.68
2022-08-18T07:50:57.412Z,93.00
2022-08-18T07:54:45.479Z,93.93
2022-08-18T07:57:51.947Z,94.79
2022-08-18T08:01:42.057Z,94.83
2022-08-18T08:05:17.022Z,93.15
2022-08-18T08:08:39.979Z,92.47
2022-08-18T08:12:02.364Z,93.15
2022-08-18T08:15:17.606Z,92.96
2022-08-18T08:18:36.790Z,93.34
2022-08-18T08:21:44.981Z,94.92
2022-08-18T08:25:03.208Z,94.39
2022-08-18T08:28:16.354Z,93.66
2022-08-18T08:31:39.754Z,95.48
2022-08-18T08:34:44.225Z,97.31
2022-08-18T08:37:53.297Z,99.15
2022-08-18T08:41:08.143Z,99.88
2022-08-18T08:44:17.762Z,100.00
2022-08-18T08:47:47.694Z,97.22
2022-08-18T08:50:54.428Z,98.90
2022-08-18T08:54:20.234Z,97.93
2022-08-18T08:57:27.798Z,100.00
2022-08-18T09:00:30.796Z,100.00
2022-08-18T09:03:38.233Z,100.00
2022-08-18T09:07:24.602Z,100.00
2022-08-18T09:11:03.621Z,100.00
2022-08-18T09:14:43.978Z,100.00
2022-08-18T09:18:00.607Z,100.00
2022-08-18T09:21:13.289Z,100.00
2022-08-18T09:24:25.764Z,100.00
2022-08-18T09:28:00.184Z,100.00
2022-08-18T09:31:03.089Z,100.00
2022-08-18T09:34:22.622Z,100.00
2022-08-18T09:38:12.764Z,100.00
2022-08-18T09:41:34.147Z,100.00
2022-08-18T09:44:47.553Z,100.00
2022-08-18T09:47:57.079Z,100.00
2022-08-18T09:51:35.276Z,100.00
2022-08-18T09:54:53.564Z,100.00
2022-08-18T09:58:39.762Z,100.00
2022-08-18T10:01:42.085Z,100.00
2022-08-18T10:04:51.171Z,100.00
2022-08-18T10:08:28.794Z,100.00
2022-08-18T10:11:51.009Z,100.00
2022-08-18T10:15:33.891Z,100.00
2022-08-18T10:18:39.599Z,100.00
2022-08-18T10:21:56.400Z,100.00
2022-08-18T10:25:19.822Z,100.00
2022-08-18T10:28:48.716Z,100.00
2022-08-18T10:31:57.628Z,100.00
2022-08-18T10:34:59.963Z,100.00
2022-08-18T10:38:18.659Z,100.00
2022-08-18T10:41:30.799Z,100.00
2022-08-18T10:44:42.548Z,100.00
2022-08-18T10:47:45.146Z,100.00
2022-08-18T10:51:27.494Z,100.00
2022-08-18T10:54:52.016Z,100.00
2022-08-18T10:58:17.636Z,100.00
2022-08-18T11:01:32.809Z,100.00
2022-08-18T11:04:47.321Z,100.00
2022-08-18T11:08:03.809Z,100.00
2022-08-18T11:11:34.525Z,100.00
2022-08-18T11:15:23.092Z,100.00
2022-08-18T11:18:43.030Z,100.00
2022-08-18T11:21:51.338Z,100.00
2022-08-18T11:24:53.443Z,100.00
2022-08-18T11:27:56.241Z,100.00
2022-08-18T11:30:59.326Z,100.00
2022-08-18T11:34:01.654Z,100.00
2022-08-18T11:37:22.593Z,100.00
2022-08-18T11:41:09.456Z,100.00
2022-08-18T11:43:59.758Z,99.43
2022-08-18T11:50:55.762Z,100.00
2022-08-18T11:57:54.453Z,99.45
2022-08-18T12:01:01.517Z,96.98
2022-08-18T12:04:14.022Z,96.24
2022-08-18T12:07:28.452Z,95.04
2022-08-18T12:10:30.045Z,93.77
2022-08-18T12:13:31.778Z,91.22
2022-08-18T12:16:40.532Z,90.60
2022-08-18T12:19:47.983Z,91.10
2022-08-18T12:22:49.894Z,88.63
2022-08-18T12:29:12.854Z,85.38
2022-08-18T12:32:46.768Z,83.90
2022-08-18T12:35:42.251Z,84.24
2022-08-18T12:38:44.894Z,81.07
2022-08-18T12:41:54.168Z,76.89
2022-08-18T12:44:55.582Z,74.20
2022-08-18T12:47:57.140Z,74.89
2022-08-18T12:51:00.892Z,76.71
2022-08-18T12:54:07.097Z,73.17
2022-08-18T12:57:33.238Z,71.93
2022-08-18T13:00:44.066Z,70.31
2022-08-18T13:03:52.746Z,68.77
2022-08-18T13:07:13.165Z,66.83
2022-08-18T13:10:21.849Z,65.18
2022-08-18T13:16:53.902Z,59.87
2022-08-18T13:19:56.525Z,58.85
2022-08-18T13:22:59.567Z,57.18
2022-08-18T13:26:03.030Z,57.02
2022-08-18T13:29:05.198Z,55.42
2022-08-18T13:32:12.066Z,55.10
2022-08-18T13:35:13.827Z,54.45
2022-08-18T13:38:25.878Z,55.79
2022-08-18T13:41:31.549Z,55.67
2022-08-18T13:44:34.065Z,56.49
2022-08-18T13:47:38.276Z,55.21
2022-08-18T13:50:40.273Z,55.44
2022-08-18T13:53:57.408Z,54.34
2022-08-18T13:57:00.983Z,55.20
2022-08-18T14:09:51.518Z,56.12
2022-08-18T14:12:59.398Z,56.92
2022-08-18T14:16:01.064Z,56.72
2022-08-18T14:24:48.660Z,55.87
2022-08-18T14:27:56.419Z,55.10
2022-08-18T14:31:00.765Z,55.15
2022-08-18T14:34:04.302Z,55.07
2022-08-18T14:37:05.898Z,53.54
2022-08-18T14:40:12.380Z,52.23
2022-08-18T14:43:17.147Z,52.23
2022-08-18T14:49:28.687Z,54.10
2022-08-18T14:52:30.923Z,54.91
2022-08-18T14:55:34.141Z,55.46
2022-08-18T14:58:35.692Z,54.39
2022-08-18T15:01:42.875Z,53.86
2022-08-18T15:04:53.006Z,54.97
2022-08-18T15:08:03.397Z,55.29
2022-08-18T15:11:11.821Z,52.92
2022-08-18T15:14:14.118Z,53.74
2022-08-18T15:17:17.250Z,53.69
2022-08-18T15:20:29.722Z,53.86
2022-08-18T15:23:50.136Z,53.65
2022-08-18T15:27:05.440Z,54.63
2022-08-18T15:30:11.327Z,54.80
2022-08-18T15:33:15.662Z,54.53
2022-08-18T15:36:21.474Z,54.30
2022-08-18T15:39:30.519Z,54.57
2022-08-18T15:42:34.287Z,54.43
2022-08-18T15:45:51.023Z,54.17
2022-08-18T15:48:58.153Z,52.71
2022-08-18T15:51:59.812Z,53.51
2022-08-18T15:55:04.718Z,53.25
2022-08-18T15:58:12.412Z,53.77
2022-08-18T16:01:30.433Z,53.99
2022-08-18T16:04:34.935Z,53.74
2022-08-18T16:07:41.143Z,53.19
2022-08-18T16:10:46.827Z,53.39
2022-08-18T16:13:49.310Z,53.59
2022-08-18T16:16:50.783Z,54.34
2022-08-18T16:19:52.205Z,54.90
2022-08-18T16:22:53.969Z,54.55
2022-08-18T16:26:00.772Z,53.63
2022-08-18T16:29:02.284Z,53.89
2022-08-18T16:32:04.811Z,54.60
2022-08-18T16:35:19.645Z,55.29
2022-08-18T16:38:21.799Z,55.12
2022-08-18T16:41:23.280Z,54.67
2022-08-18T16:44:24.858Z,55.00
2022-08-18T16:47:26.921Z,55.34
2022-08-18T16:50:29.623Z,54.67
2022-08-18T16:53:39.834Z,55.17
2022-08-18T16:56:41.960Z,54.41
2022-08-18T17:00:02.025Z,53.18
2022-08-18T17:03:23.887Z,52.79
2022-08-18T17:06:28.220Z,53.61
2022-08-18T17:09:29.746Z,54.03
2022-08-18T17:12:31.339Z,53.84
2022-08-18T17:15:33.158Z,53.89
2022-08-18T17:18:36.033Z,53.72
2022-08-18T17:21:37.890Z,53.91
2022-08-18T17:24:41.169Z,53.97
2022-08-18T17:27:49.407Z,53.90
2022-08-18T17:30:54.421Z,54.04
2022-08-18T17:34:00.932Z,54.40
2022-08-18T17:37:03.826Z,54.13
2022-08-18T17:40:13.246Z,54.14
2022-08-18T17:43:24.880Z,54.22
2022-08-18T17:46:30.081Z,54.13
2022-08-18T17:50:26.416Z,54.29
2022-08-18T17:53:17.461Z,54.17
2022-08-18T17:56:35.392Z,54.45
2022-08-18T17:59:51.982Z,54.92
2022-08-18T18:02:53.704Z,54.69
2022-08-18T18:06:02.998Z,54.25
2022-08-18T18:09:11.132Z,54.74
2022-08-18T18:12:23.361Z,54.83
2022-08-18T18:15:31.915Z,54.74
2022-08-18T18:18:45.023Z,55.04
2022-08-18T18:22:03.340Z,55.22
2022-08-18T18:25:07.505Z,54.78
2022-08-18T18:28:29.265Z,55.22
2022-08-18T18:31:31.411Z,55.30
2022-08-18T18:34:45.177Z,55.76
2022-08-18T18:38:00.132Z,55.96
2022-08-18T18:41:03.652Z,56.42
2022-08-18T18:44:10.508Z,56.29
2022-08-18T18:47:33.604Z,56.42
2022-08-18T18:50:53.032Z,56.77
2022-08-18T18:54:23.533Z,56.98
2022-08-18T18:57:40.267Z,56.78
2022-08-18T19:00:53.635Z,56.95
2022-08-18T19:04:10.055Z,56.62
2022-08-18T19:07:21.265Z,56.57
2022-08-18T19:10:34.932Z,55.91
2022-08-18T19:13:44.926Z,56.09
2022-08-18T19:17:08.504Z,55.33
2022-08-18T19:20:16.930Z,55.54
2022-08-18T19:23:59.509Z,55.56
2022-08-18T19:27:03.790Z,55.72
2022-08-18T19:30:09.447Z,55.97
2022-08-18T19:33:18.413Z,56.21
2022-08-18T19:36:44.017Z,56.32
2022-08-18T19:39:55.656Z,56.75
2022-08-18T19:43:26.553Z,56.54
2022-08-18T19:46:37.878Z,56.86
2022-08-18T19:49:56.435Z,56.64
2022-08-18T19:53:14.433Z,56.76
2022-08-18T19:56:24.649Z,57.07
2022-08-18T19:59:45.765Z,57.14
2022-08-18T20:03:21.283Z,57.07
2022-08-18T20:06:49.825Z,57.36
2022-08-18T20:10:21.106Z,57.63
2022-08-18T20:13:38.394Z,57.38
2022-08-18T20:16:44.921Z,57.75
2022-08-18T20:19:57.328Z,58.32
2022-08-18T20:23:00.165Z,58.41
2022-08-18T20:26:01.846Z,58.63
2022-08-18T20:29:05.076Z,58.84
2022-08-18T20:32:19.162Z,59.08
2022-08-18T20:35:31.609Z,59.34
2022-08-18T20:38:35.507Z,59.32
2022-08-18T20:41:45.137Z,59.68
2022-08-18T20:44:49.583Z,59.86
2022-08-18T20:48:06.956Z,60.17
2022-08-18T20:51:16.189Z,60.36
2022-08-18T20:54:28.198Z,60.34
2022-08-18T20:57:34.853Z,60.73
2022-08-18T21:00:40.405Z,60.85
2022-08-18T21:03:46.054Z,61.17
2022-08-18T21:06:48.358Z,61.45
2022-08-18T21:09:52.766Z,61.16
2022-08-18T21:12:57.730Z,61.14
2022-08-18T21:15:59.730Z,61.41
2022-08-18T21:19:13.761Z,61.17
2022-08-18T21:25:16.932Z,61.27
2022-08-18T21:28:18.596Z,62.28
2022-08-18T21:31:44.230Z,62.76
2022-08-18T21:34:47.157Z,63.06
2022-08-18T21:37:58.016Z,63.18
2022-08-18T21:41:00.919Z,64.19
2022-08-18T21:44:13.535Z,64.64
2022-08-18T21:47:20.802Z,64.81
2022-08-18T21:50:33.921Z,64.94
2022-08-18T21:53:38.187Z,65.27
2022-08-18T21:56:40.106Z,65.39
2022-08-18T22:00:17.052Z,65.40
2022-08-18T22:03:21.553Z,65.99
2022-08-18T22:06:29.010Z,66.02
2022-08-18T22:09:52.338Z,65.78
2022-08-18T22:13:15.014Z,65.40
2022-08-18T22:16:27.757Z,66.17
2022-08-18T22:19:29.214Z,66.47
2022-08-18T22:22:49.192Z,67.23
2022-08-18T22:25:51.229Z,67.36
2022-08-18T22:29:13.411Z,67.53
2022-08-18T22:32:15.477Z,67.81
2022-08-18T22:35:17.527Z,68.26
2022-08-18T22:38:19.081Z,67.78
2022-08-18T22:41:21.849Z,67.68
2022-08-18T22:44:24.072Z,67.85
2022-08-18T22:47:25.861Z,68.23
2022-08-18T22:50:27.283Z,68.07
2022-08-18T22:53:29.389Z,68.68
2022-08-18T22:56:34.346Z,69.07
2022-08-18T22:59:36.832Z,68.87
2022-08-18T23:02:43.962Z,68.87
2022-08-18T23:05:45.466Z,69.04
2022-08-18T23:08:54.999Z,69.45
2022-08-18T23:12:05.131Z,68.46
2022-08-18T23:15:11.129Z,68.72
2022-08-18T23:18:13.919Z,68.50
2022-08-18T23:21:34.734Z,68.87
2022-08-18T23:24:37.561Z,69.80
2022-08-18T23:27:39.403Z,70.82
2022-08-18T23:30:41.121Z,71.47
2022-08-18T23:33:42.859Z,71.73
2022-08-18T23:36:46.401Z,72.00
2022-08-18T23:39:48.226Z,72.66
2022-08-18T23:42:51.529Z,72.71
2022-08-18T23:45:53.138Z,72.12
2022-08-18T23:48:57.232Z,72.59
2022-08-18T23:51:59.945Z,72.76
2022-08-18T23:55:06.561Z,71.96
2022-08-18T23:58:09.514Z,71.72
